createdAt,value
2023-04-14T00:01:04.552Z,12.45
2023-04-14T00:03:33.589Z,16.42
2023-04-14T00:06:00.754Z,12.50
2023-04-14T00:08:27.476Z,11.85
2023-04-14T00:10:56.609Z,13.60
2023-04-14T00:13:23.207Z,13.48
2023-04-14T00:15:49.947Z,9.52
2023-04-14T00:18:16.662Z,10.68
2023-04-14T00:20:43.608Z,18.85
2023-04-14T00:23:12.508Z,15.27
2023-04-14T00:25:41.608Z,10.40
2023-04-14T00:28:08.249Z,16.55
2023-04-14T00:30:34.927Z,10.75
2023-04-14T00:33:03.720Z,13.70
2023-04-14T00:35:31.942Z,7.53
2023-04-14T00:37:58.584Z,13.40
2023-04-14T00:40:25.467Z,12.23
2023-04-14T00:42:54.606Z,14.63
2023-04-14T00:45:21.347Z,11.80
2023-04-14T00:47:50.674Z,11.88
2023-04-14T00:50:19.097Z,9.30
2023-04-14T00:52:48.008Z,12.98
2023-04-14T00:55:16.481Z,7.63
2023-04-14T00:57:43.385Z,13.98
2023-04-14T01:00:11.723Z,10.38
2023-04-14T01:02:38.854Z,11.15
2023-04-14T01:05:08.064Z,10.77
2023-04-14T01:07:37.334Z,12.77
2023-04-14T01:10:07.163Z,11.20
2023-04-14T01:12:57.926Z,14.27
2023-04-14T01:15:57.501Z,13.40
2023-04-14T01:18:59.294Z,10.93
2023-04-14T01:21:38.344Z,9.50
2023-04-14T01:24:07.927Z,10.00
2023-04-14T01:26:34.915Z,15.32
2023-04-14T01:29:31.193Z,10.00
2023-04-14T01:32:05.958Z,9.30
2023-04-14T01:34:46.151Z,14.85
2023-04-14T01:37:18.964Z,10.32
2023-04-14T01:39:52.860Z,15.65
2023-04-14T01:42:24.891Z,10.02
2023-04-14T01:44:59.377Z,12.73
2023-04-14T01:47:28.980Z,14.55
2023-04-14T01:49:59.237Z,12.65
2023-04-14T01:52:27.282Z,14.85
2023-04-14T01:54:55.711Z,9.65
2023-04-14T01:57:25.238Z,11.10
2023-04-14T01:59:56.729Z,14.43
2023-04-14T02:02:26.233Z,18.13
2023-04-14T02:04:57.428Z,18.90
2023-04-14T02:07:25.344Z,18.73
2023-04-14T02:09:53.482Z,13.38
2023-04-14T02:12:23.195Z,13.82
2023-04-14T02:14:51.588Z,13.68
2023-04-14T02:17:20.816Z,14.60
2023-04-14T02:19:50.911Z,9.93
2023-04-14T02:22:17.614Z,14.77
2023-04-14T02:24:46.426Z,17.38
2023-04-14T02:27:32.006Z,13.45
2023-04-14T02:29:59.822Z,14.23
2023-04-14T02:32:29.891Z,11.70
2023-04-14T02:35:04.517Z,14.35
2023-04-14T02:37:37.628Z,12.23
2023-04-14T02:40:12.790Z,10.38
2023-04-14T02:42:43.162Z,14.40
2023-04-14T02:45:18.625Z,12.13
2023-04-14T02:47:49.423Z,9.18
2023-04-14T02:50:20.868Z,9.43
2023-04-14T02:52:51.377Z,11.90
2023-04-14T02:55:23.009Z,15.90
2023-04-14T02:57:51.820Z,11.60
2023-04-14T03:00:19.368Z,16.60
2023-04-14T03:02:47.294Z,10.70
2023-04-14T03:05:14.545Z,11.07
2023-04-14T03:07:44.891Z,14.30
2023-04-14T03:10:12.379Z,12.82
2023-04-14T03:12:42.124Z,13.38
2023-04-14T03:15:10.461Z,13.70
2023-04-14T03:17:38.183Z,13.20
2023-04-14T03:20:09.837Z,12.88
2023-04-14T03:22:40.814Z,10.40
2023-04-14T03:25:12.441Z,13.90
2023-04-14T03:27:39.972Z,14.18
2023-04-14T03:30:11.652Z,14.57
2023-04-14T03:32:41.745Z,7.25
2023-04-14T03:35:14.329Z,8.40
2023-04-14T03:37:44.358Z,12.18
2023-04-14T03:40:13.593Z,13.70
2023-04-14T03:42:44.662Z,12.13
2023-04-14T03:45:11.976Z,11.90
2023-04-14T03:47:38.892Z,10.85
2023-04-14T03:50:10.213Z,14.32
2023-04-14T03:52:42.265Z,13.43
2023-04-14T03:55:12.442Z,10.20
2023-04-14T03:57:40.727Z,13.32
2023-04-14T04:00:11.700Z,9.60
2023-04-14T04:02:44.899Z,13.68
2023-04-14T04:05:13.123Z,21.52
2023-04-14T04:07:44.947Z,9.27
2023-04-14T04:10:13.953Z,15.00
2023-04-14T04:12:46.675Z,8.90
2023-04-14T04:15:16.491Z,12.57
2023-04-14T04:17:44.013Z,16.90
2023-04-14T04:20:15.418Z,13.15
2023-04-14T04:22:46.647Z,11.98
2023-04-14T04:25:16.182Z,9.77
2023-04-14T04:27:42.967Z,15.55
2023-04-14T04:30:10.559Z,8.55
2023-04-14T04:32:40.202Z,9.30
2023-04-14T04:35:08.078Z,14.23
2023-04-14T04:37:35.413Z,10.73
2023-04-14T04:40:02.243Z,10.13
2023-04-14T04:42:28.857Z,10.63
2023-04-14T04:44:56.032Z,11.25
2023-04-14T04:47:23.185Z,16.20
2023-04-14T04:49:49.799Z,13.48
2023-04-14T04:52:16.441Z,14.68
2023-04-14T04:54:43.737Z,9.63
2023-04-14T04:57:12.070Z,13.70
2023-04-14T04:59:38.999Z,13.88
2023-04-14T05:02:06.337Z,11.77
2023-04-14T05:04:35.431Z,16.42
2023-04-14T05:07:03.515Z,11.57
2023-04-14T05:09:30.146Z,8.50
2023-04-14T05:11:57.324Z,11.60
2023-04-14T05:14:25.193Z,14.15
2023-04-14T05:16:55.461Z,10.52
2023-04-14T05:19:24.406Z,14.20
2023-04-14T05:21:51.139Z,8.63
2023-04-14T05:24:17.769Z,10.15
2023-04-14T05:27:01.746Z,16.55
2023-04-14T05:29:33.532Z,10.43
2023-04-14T05:32:00.524Z,11.73
2023-04-14T05:34:27.233Z,11.88
2023-04-14T05:36:53.859Z,18.35
2023-04-14T05:39:22.880Z,14.52
2023-04-14T05:41:49.713Z,11.65
2023-04-14T05:44:16.537Z,12.95
2023-04-14T05:46:46.464Z,15.65
2023-04-14T05:49:13.240Z,13.75
2023-04-14T05:51:39.865Z,13.65
2023-04-14T05:54:06.763Z,8.45
2023-04-14T05:56:33.481Z,11.52
2023-04-14T05:59:00.484Z,10.45
2023-04-14T06:01:27.220Z,13.48
2023-04-14T06:03:56.610Z,14.35
2023-04-14T06:06:23.518Z,12.15
2023-04-14T06:08:52.462Z,13.50
2023-04-14T06:11:21.316Z,13.18
2023-04-14T06:13:48.023Z,11.48
2023-04-14T06:16:14.690Z,13.43
2023-04-14T06:18:44.063Z,10.38
2023-04-14T06:21:11.684Z,10.18
2023-04-14T06:23:40.961Z,8.32
2023-04-14T06:26:07.748Z,8.52
2023-04-14T06:28:37.019Z,8.25
2023-04-14T06:31:04.114Z,5.65
2023-04-14T06:33:33.272Z,9.68
2023-04-14T06:36:00.253Z,10.73
2023-04-14T06:38:27.040Z,4.53
2023-04-14T06:40:53.670Z,10.27
2023-04-14T06:43:20.441Z,10.35
2023-04-14T06:45:47.158Z,7.95
2023-04-14T06:48:14.356Z,10.20
2023-04-14T06:50:51.636Z,6.60
2023-04-14T06:53:18.307Z,7.97
2023-04-14T06:55:45.006Z,7.13
2023-04-14T06:58:11.692Z,8.95
2023-04-14T07:00:41.056Z,10.05
2023-04-14T07:03:07.867Z,8.18
2023-04-14T07:05:34.591Z,7.38
2023-04-14T07:08:01.481Z,9.13
2023-04-14T07:10:28.173Z,8.90
2023-04-14T07:12:59.602Z,8.90
2023-04-14T07:15:26.644Z,7.05
2023-04-14T07:17:58.646Z,10.05
2023-04-14T07:20:29.181Z,7.25
2023-04-14T07:22:56.146Z,6.65
2023-04-14T07:25:23.296Z,6.03
2023-04-14T07:28:02.650Z,9.85
2023-04-14T07:30:30.156Z,8.48
2023-04-14T07:32:59.445Z,10.18
2023-04-14T07:35:28.868Z,13.45
2023-04-14T07:37:56.004Z,11.15
2023-04-14T07:40:22.647Z,8.60
2023-04-14T07:42:52.017Z,10.90
2023-04-14T07:45:18.976Z,7.35
2023-04-14T07:47:48.271Z,14.80
2023-04-14T07:50:15.654Z,8.55
2023-04-14T07:52:43.319Z,6.72
2023-04-14T07:55:10.109Z,8.38
2023-04-14T07:57:36.766Z,8.98
2023-04-14T08:00:04.237Z,8.32
2023-04-14T08:02:31.794Z,10.40
2023-04-14T08:04:58.624Z,9.55
2023-04-14T08:07:28.525Z,11.30
2023-04-14T08:09:55.257Z,12.52
2023-04-14T08:12:25.091Z,6.00
2023-04-14T08:14:57.039Z,10.20
2023-04-14T08:17:24.327Z,8.15
2023-04-14T08:19:51.113Z,10.80
2023-04-14T08:22:18.440Z,7.28
2023-04-14T08:24:48.249Z,10.40
2023-04-14T08:27:14.948Z,10.45
2023-04-14T08:29:41.712Z,7.85
2023-04-14T08:32:13.222Z,8.63
2023-04-14T08:34:40.062Z,6.90
2023-04-14T08:37:27.050Z,5.40
2023-04-14T08:39:56.317Z,9.85
2023-04-14T08:42:23.125Z,10.35
2023-04-14T08:44:51.952Z,9.90
2023-04-14T08:47:22.852Z,8.23
2023-04-14T08:49:56.721Z,13.63
2023-04-14T08:54:51.368Z,7.38
2023-04-14T08:57:22.147Z,6.65
2023-04-14T08:59:49.185Z,15.00
2023-04-14T09:02:18.030Z,10.10
2023-04-14T09:04:45.968Z,7.55
2023-04-14T09:07:15.484Z,7.90
2023-04-14T09:09:45.296Z,6.55
2023-04-14T09:12:16.756Z,5.82
2023-04-14T09:14:46.451Z,9.13
2023-04-14T09:17:13.419Z,7.00
2023-04-14T09:20:35.348Z,7.38
2023-04-14T09:22:27.879Z,7.53
2023-04-14T09:24:57.254Z,9.02
2023-04-14T09:27:23.920Z,8.45
2023-04-14T09:29:56.245Z,8.30
2023-04-14T09:32:25.123Z,4.18
2023-04-14T09:34:58.438Z,8.93
2023-04-14T09:37:26.079Z,5.55
2023-04-14T09:39:55.958Z,7.05
2023-04-14T09:42:38.924Z,7.28
2023-04-14T09:45:06.270Z,7.72
2023-04-14T09:47:33.019Z,11.10
2023-04-14T09:50:03.167Z,8.90
2023-04-14T09:52:39.544Z,10.65
2023-04-14T09:55:09.536Z,8.95
2023-04-14T09:57:37.335Z,11.18
2023-04-14T10:00:24.509Z,7.03
2023-04-14T10:02:56.408Z,10.05
2023-04-14T10:05:27.722Z,8.68
2023-04-14T10:07:55.352Z,6.65
2023-04-14T10:10:24.940Z,5.90
2023-04-14T10:12:55.441Z,6.80
2023-04-14T10:15:24.588Z,5.30
2023-04-14T10:17:53.902Z,4.93
2023-04-14T10:20:21.025Z,5.82
2023-04-14T10:22:50.690Z,3.85
2023-04-14T10:25:22.709Z,5.03
2023-04-14T10:27:50.208Z,4.82
2023-04-14T10:30:16.958Z,6.63
2023-04-14T10:32:48.040Z,7.30
2023-04-14T10:35:18.431Z,10.93
2023-04-14T10:37:52.204Z,23.40
2023-04-14T10:42:56.386Z,52.50
2023-04-14T10:45:23.451Z,6.70
2023-04-14T10:47:51.119Z,5.25
2023-04-14T10:50:22.076Z,6.22
2023-04-14T10:53:00.932Z,6.50
2023-04-14T10:55:28.268Z,7.80
2023-04-14T10:58:08.717Z,7.00
2023-04-14T11:00:41.696Z,3.75
2023-04-14T11:03:11.140Z,6.13
2023-04-14T11:06:04.357Z,5.55
2023-04-14T11:08:35.864Z,6.30
2023-04-14T11:11:04.760Z,4.70
2023-04-14T11:13:33.180Z,5.50
2023-04-14T11:16:04.483Z,7.85
2023-04-14T11:18:38.000Z,5.85
2023-04-14T11:21:15.583Z,4.47
2023-04-14T11:23:45.059Z,5.50
2023-04-14T11:26:13.984Z,6.40
2023-04-14T11:28:42.789Z,6.28
2023-04-14T11:31:12.001Z,7.32
2023-04-14T11:33:41.672Z,6.03
2023-04-14T11:36:13.388Z,6.07
2023-04-14T11:38:40.706Z,5.53
2023-04-14T11:41:10.692Z,4.55
2023-04-14T11:43:46.309Z,5.97
2023-04-14T11:46:15.506Z,4.78
2023-04-14T11:48:42.276Z,6.25
2023-04-14T11:51:11.534Z,5.00
2023-04-14T11:53:40.518Z,4.75
2023-04-14T11:56:08.734Z,7.03
2023-04-14T11:58:38.113Z,4.82
2023-04-14T12:01:04.973Z,6.82
2023-04-14T12:03:33.166Z,2.95
2023-04-14T12:06:03.356Z,4.85
2023-04-14T12:08:31.348Z,4.70
2023-04-14T12:10:58.697Z,3.50
2023-04-14T12:13:27.159Z,8.73
2023-04-14T12:15:54.450Z,7.93
2023-04-14T12:18:24.110Z,6.13
2023-04-14T12:20:56.302Z,5.28
2023-04-14T12:23:23.821Z,4.20
2023-04-14T12:25:51.478Z,7.32
2023-04-14T12:28:29.140Z,6.03
2023-04-14T12:31:02.529Z,4.07
2023-04-14T12:33:30.695Z,4.53
2023-04-14T12:36:04.905Z,3.78
2023-04-14T12:38:31.751Z,5.28
2023-04-14T12:41:00.935Z,6.88
2023-04-14T12:43:34.677Z,5.95
2023-04-14T12:46:06.257Z,5.28
2023-04-14T12:48:44.661Z,6.50
2023-04-14T12:51:17.319Z,6.28
2023-04-14T12:53:45.395Z,2.22
2023-04-14T12:56:24.986Z,2.80
2023-04-14T12:58:54.413Z,6.60
2023-04-14T13:01:24.655Z,4.10
2023-04-14T13:03:57.820Z,3.53
2023-04-14T13:06:25.268Z,7.43
2023-04-14T13:08:53.314Z,3.97
2023-04-14T13:11:22.204Z,6.70
2023-04-14T13:13:49.615Z,4.38
2023-04-14T13:16:17.773Z,3.97
2023-04-14T13:18:46.856Z,4.68
2023-04-14T13:21:13.976Z,4.38
2023-04-14T13:23:41.175Z,5.80
2023-04-14T13:26:07.958Z,3.78
2023-04-14T13:28:34.704Z,3.00
2023-04-14T13:31:01.575Z,2.67
2023-04-14T13:33:28.304Z,5.43
2023-04-14T13:35:57.862Z,8.13
2023-04-14T13:38:24.577Z,3.38
2023-04-14T13:40:51.356Z,9.00
2023-04-14T13:43:18.916Z,6.22
2023-04-14T13:45:46.731Z,3.95
2023-04-14T13:48:13.824Z,5.53
2023-04-14T13:50:40.736Z,5.38
2023-04-14T13:53:07.524Z,7.13
2023-04-14T13:55:35.881Z,5.07
2023-04-14T13:58:02.604Z,4.97
2023-04-14T14:00:29.529Z,6.20
2023-04-14T14:02:58.489Z,4.40
2023-04-14T14:05:25.721Z,3.45
2023-04-14T14:07:52.553Z,5.22
2023-04-14T14:10:19.369Z,4.03
2023-04-14T14:12:46.184Z,7.88
2023-04-14T14:15:12.971Z,4.75
2023-04-14T14:17:40.893Z,4.82
2023-04-14T14:20:11.253Z,4.50
2023-04-14T14:22:38.366Z,4.78
2023-04-14T14:25:18.400Z,3.40
2023-04-14T14:27:46.658Z,5.10
2023-04-14T14:30:16.282Z,4.82
2023-04-14T14:32:45.465Z,2.85
2023-04-14T14:35:12.139Z,4.03
2023-04-14T14:37:38.906Z,3.47
2023-04-14T14:40:08.335Z,4.10
2023-04-14T14:42:37.561Z,4.80
2023-04-14T14:45:05.071Z,5.15
2023-04-14T14:47:33.617Z,6.30
2023-04-14T14:50:03.489Z,3.95
2023-04-14T14:52:33.635Z,5.30
2023-04-14T14:55:00.719Z,5.65
2023-04-14T14:57:27.493Z,3.78
2023-04-14T14:59:54.359Z,5.55
2023-04-14T15:02:22.676Z,4.53
2023-04-14T15:04:52.550Z,7.15
2023-04-14T15:07:19.426Z,4.75
2023-04-14T15:09:47.224Z,3.92
2023-04-14T15:12:16.346Z,4.38
2023-04-14T15:14:45.417Z,4.28
2023-04-14T15:17:12.148Z,5.53
2023-04-14T15:19:39.173Z,4.75
2023-04-14T15:22:06.017Z,5.85
2023-04-14T15:24:32.788Z,6.53
2023-04-14T15:26:59.467Z,6.60
2023-04-14T15:29:26.602Z,2.55
2023-04-14T15:31:53.666Z,5.05
2023-04-14T15:34:21.390Z,5.88
2023-04-14T15:36:48.277Z,3.65
2023-04-14T15:39:15.045Z,3.75
2023-04-14T15:41:42.228Z,3.92
2023-04-14T15:44:09.012Z,3.28
2023-04-14T15:46:38.055Z,3.88
2023-04-14T15:49:04.799Z,3.83
2023-04-14T15:51:31.751Z,3.40
2023-04-14T15:53:58.561Z,5.85
2023-04-14T15:56:25.944Z,3.75
2023-04-14T15:58:52.694Z,4.88
2023-04-14T16:01:19.468Z,3.00
2023-04-14T16:03:46.364Z,4.93
2023-04-14T16:06:13.060Z,4.05
2023-04-14T16:08:39.831Z,4.30
2023-04-14T16:11:07.853Z,4.82
2023-04-14T16:13:34.754Z,6.43
2023-04-14T16:16:01.576Z,4.03
2023-04-14T16:18:31.157Z,4.00
2023-04-14T16:20:57.854Z,18.15
2023-04-14T16:23:24.591Z,4.13
2023-04-14T16:25:51.592Z,3.75
2023-04-14T16:28:18.664Z,2.92
2023-04-14T16:30:48.178Z,4.40
2023-04-14T16:33:15.864Z,5.55
2023-04-14T16:35:42.615Z,4.13
2023-04-14T16:38:11.669Z,5.32
2023-04-14T16:40:39.016Z,8.25
2023-04-14T16:43:05.817Z,3.40
2023-04-14T16:45:32.816Z,4.70
2023-04-14T16:48:02.342Z,5.13
2023-04-14T16:50:29.421Z,4.78
2023-04-14T16:52:56.513Z,8.82
2023-04-14T16:55:25.830Z,3.40
2023-04-14T16:57:52.619Z,3.20
2023-04-14T17:00:19.620Z,3.67
2023-04-14T17:02:46.667Z,4.68
2023-04-14T17:05:15.902Z,5.20
2023-04-14T17:07:43.064Z,4.78
2023-04-14T17:10:10.547Z,2.53
2023-04-14T17:12:37.360Z,3.13
2023-04-14T17:15:04.693Z,3.47
2023-04-14T17:17:31.937Z,4.80
2023-04-14T17:19:59.346Z,3.97
2023-04-14T17:22:27.641Z,3.92
2023-04-14T17:24:55.104Z,4.57
2023-04-14T17:27:22.494Z,4.30
2023-04-14T17:29:52.003Z,2.80
2023-04-14T17:32:19.559Z,4.18
2023-04-14T17:34:49.906Z,4.57
2023-04-14T17:37:16.673Z,4.35
2023-04-14T17:39:44.010Z,3.40
2023-04-14T17:42:15.702Z,3.97
2023-04-14T17:44:42.415Z,3.33
2023-04-14T17:47:15.760Z,1.73
2023-04-14T17:49:43.872Z,3.47
2023-04-14T17:52:11.850Z,5.40
2023-04-14T17:54:38.868Z,6.75
2023-04-14T17:57:11.355Z,3.58
2023-04-14T17:59:39.783Z,4.88
2023-04-14T18:02:06.619Z,6.95
2023-04-14T18:04:33.539Z,7.43
2023-04-14T18:07:00.330Z,6.90
2023-04-14T18:09:27.824Z,7.53
2023-04-14T18:11:54.595Z,10.27
2023-04-14T18:14:24.056Z,8.68
2023-04-14T18:16:50.840Z,7.38
2023-04-14T18:19:19.714Z,3.50
2023-04-14T18:21:47.010Z,9.88
2023-04-14T18:26:48.105Z,12.07
2023-04-14T18:29:14.844Z,25.95
2023-04-14T18:31:43.778Z,36.33
2023-04-14T18:34:14.076Z,21.70
2023-04-14T18:36:41.057Z,19.17
2023-04-14T18:39:08.268Z,12.63
2023-04-14T18:41:35.414Z,15.48
2023-04-14T18:44:04.575Z,8.95
2023-04-14T18:46:31.805Z,9.68
2023-04-14T18:48:58.817Z,8.38
2023-04-14T18:51:26.005Z,9.65
2023-04-14T18:53:53.290Z,6.70
2023-04-14T18:56:22.388Z,8.40
2023-04-14T18:58:50.354Z,8.80
2023-04-14T19:01:19.854Z,7.72
2023-04-14T19:03:49.285Z,8.20
2023-04-14T19:06:18.547Z,12.70
2023-04-14T19:08:45.487Z,7.38
2023-04-14T19:11:12.359Z,12.65
2023-04-14T19:13:39.336Z,9.20
2023-04-14T19:16:12.490Z,11.88
2023-04-14T19:18:44.578Z,9.00
2023-04-14T19:21:11.365Z,8.23
2023-04-14T19:23:41.013Z,5.28
2023-04-14T19:26:08.321Z,8.07
2023-04-14T19:28:40.253Z,8.18
2023-04-14T19:31:07.113Z,10.82
2023-04-14T19:33:34.656Z,9.30
2023-04-14T19:36:01.505Z,12.55
2023-04-14T19:38:28.642Z,15.52
2023-04-14T19:40:58.957Z,8.82
2023-04-14T19:43:25.768Z,12.57
2023-04-14T19:45:53.358Z,12.25
2023-04-14T19:48:23.991Z,18.90
2023-04-14T19:50:55.003Z,10.98
2023-04-14T19:53:23.628Z,10.55
2023-04-14T19:55:51.386Z,16.50
2023-04-14T19:58:21.848Z,8.68
2023-04-14T20:00:51.417Z,10.77
2023-04-14T20:03:21.127Z,8.68
2023-04-14T20:05:59.504Z,10.20
2023-04-14T20:08:32.160Z,9.82
2023-04-14T20:10:59.332Z,5.28
2023-04-14T20:13:30.414Z,9.93
2023-04-14T20:15:57.137Z,11.77
2023-04-14T20:18:24.058Z,10.77
2023-04-14T20:20:51.364Z,8.98
2023-04-14T20:23:20.655Z,7.63
2023-04-14T20:25:48.663Z,7.82
2023-04-14T20:28:19.484Z,10.10
2023-04-14T20:30:50.965Z,4.00
2023-04-14T20:33:21.375Z,5.00
2023-04-14T20:35:49.154Z,8.60
2023-04-14T20:38:18.187Z,6.15
2023-04-14T20:40:47.487Z,7.70
2023-04-14T20:43:16.901Z,5.68
2023-04-14T20:45:43.973Z,5.95
2023-04-14T20:48:10.702Z,6.25
2023-04-14T20:50:37.525Z,7.95
2023-04-14T20:53:04.374Z,5.28
2023-04-14T20:55:31.038Z,9.82
2023-04-14T20:57:58.090Z,7.88
2023-04-14T21:00:27.357Z,6.32
2023-04-14T21:02:54.475Z,8.13
2023-04-14T21:05:21.962Z,8.57
2023-04-14T21:07:51.086Z,6.35
2023-04-14T21:10:17.711Z,7.07
2023-04-14T21:15:29.603Z,10.10
2023-04-14T21:15:53.988Z,5.35
2023-04-14T21:18:18.628Z,7.38
2023-04-14T21:20:45.553Z,3.88
2023-04-14T21:23:12.306Z,5.07
2023-04-14T21:25:39.100Z,12.23
2023-04-14T21:28:06.080Z,10.52
2023-04-14T21:30:33.954Z,4.65
2023-04-14T21:33:00.653Z,9.23
2023-04-14T21:35:27.426Z,12.60
2023-04-14T21:37:54.064Z,6.85
2023-04-14T21:40:21.438Z,10.65
2023-04-14T21:42:48.144Z,8.00
2023-04-14T21:45:15.173Z,6.70
2023-04-14T21:47:44.055Z,9.23
2023-04-14T21:50:10.784Z,10.52
2023-04-14T21:52:39.907Z,8.55
2023-04-14T21:55:07.416Z,7.70
2023-04-14T21:57:45.651Z,8.13
2023-04-14T22:00:17.587Z,5.95
2023-04-14T22:02:45.226Z,12.00
2023-04-14T22:05:12.464Z,9.45
2023-04-14T22:07:41.538Z,7.40
2023-04-14T22:10:08.642Z,8.43
2023-04-14T22:12:36.052Z,4.88
2023-04-14T22:15:05.821Z,10.32
2023-04-14T22:17:32.891Z,7.90
2023-04-14T22:20:01.787Z,4.25
2023-04-14T22:22:31.053Z,5.40
2023-04-14T22:24:57.742Z,10.70
2023-04-14T22:27:26.631Z,8.43
2023-04-14T22:29:53.949Z,6.40
2023-04-14T22:32:20.717Z,6.68
2023-04-14T22:34:47.389Z,8.07
2023-04-14T22:37:14.626Z,6.75
2023-04-14T22:39:41.778Z,9.05
2023-04-14T22:42:11.014Z,10.80
2023-04-14T22:44:38.218Z,11.02
2023-04-14T22:47:04.946Z,9.15
2023-04-14T22:49:33.777Z,5.63
2023-04-14T22:52:02.920Z,7.80
2023-04-14T22:54:29.560Z,5.88
2023-04-14T22:56:58.760Z,5.70
2023-04-14T22:59:27.887Z,9.60
2023-04-14T23:01:54.641Z,7.70
2023-04-14T23:04:26.665Z,12.18
2023-04-14T23:06:53.469Z,6.93
2023-04-14T23:09:20.982Z,5.75
2023-04-14T23:11:47.652Z,8.48
2023-04-14T23:14:14.305Z,7.30
2023-04-14T23:16:43.815Z,9.30
2023-04-14T23:19:10.576Z,7.05
2023-04-14T23:21:37.298Z,7.00
2023-04-14T23:24:04.360Z,9.73
2023-04-14T23:26:31.482Z,12.02
2023-04-14T23:28:58.191Z,10.75
2023-04-14T23:31:24.926Z,7.20
2023-04-14T23:33:52.816Z,9.23
2023-04-14T23:36:20.062Z,11.23
2023-04-14T23:38:49.413Z,8.88
2023-04-14T23:41:16.764Z,8.68
2023-04-14T23:43:43.510Z,6.70
2023-04-14T23:46:12.428Z,13.18
2023-04-14T23:48:39.133Z,9.35
2023-04-14T23:51:20.022Z,9.05
2023-04-14T23:53:51.359Z,9.15
2023-04-14T23:56:18.065Z,7.63
2023-04-14T23:58:47.034Z,8.43
